This is the latest recevied weather packets stored in our database for station/object S50APT-10. If no packets are shown the sender has not sent any weather packets the latest 10 day(s).
| Time | Temp. | Humidity | Pressure | Rain* | Wind** | Luminosity | Snow |
|---|---|---|---|---|---|---|---|
| 1777550380 | 17.22° C | 22% | 1029.9 hPa | - | - | - | - |
| 1777549689 | 17.22° C | 22% | 1029.9 hPa | - | - | - | - |
| 1777548788 | 21.67° C | 19% | 1029.9 hPa | - | - | - | - |
| 1777547886 | 15° C | 23% | 1030.1 hPa | - | - | - | - |
| 1777546985 | 18.89° C | 23% | 1030 hPa | - | - | - | - |
| 1777546084 | 20.56° C | 21% | 1030.1 hPa | - | - | - | - |
| 1777545184 | 20° C | 21% | 1030.2 hPa | - | - | - | - |
| 1777544283 | 16.11° C | 26% | 1030.5 hPa | - | - | - | - |
| 1777543383 | 15° C | 26% | 1030.8 hPa | - | - | - | - |
| 1777542482 | 17.22° C | 24% | 1030.8 hPa | - | - | - | - |
| 1777541582 | 14.44° C | 29% | 1030.8 hPa | - | - | - | - |
| 1777540679 | 16.67° C | 25% | 1030.7 hPa | - | - | - | - |
| 1777539779 | 18.33° C | 24% | 1030.8 hPa | - | - | - | - |
| 1777538878 | 13.33° C | 28% | 1030.9 hPa | - | - | - | - |
| 1777537978 | 12.78° C | 30% | 1030.8 hPa | - | - | - | - |
| 1777537078 | 13.89° C | 29% | 1030.7 hPa | - | - | - | - |
| 1777536177 | 10.56° C | 34% | 1030.9 hPa | - | - | - | - |
| 1777535276 | 10.56° C | 33% | 1030.9 hPa | - | - | - | - |
| 1777534376 | 8.89° C | 35% | 1030.8 hPa | - | - | - | - |
| 1777533475 | 9.44° C | 35% | 1030.8 hPa | - | - | - | - |
| 1777532578 | 7.78° C | 36% | 1030.8 hPa | - | - | - | - |
| 1777531664 | 7.78° C | 37% | 1030.8 hPa | - | - | - | - |
| 1777530753 | 6.67° C | 39% | 1030.9 hPa | - | - | - | - |
| 1777529842 | 6.11° C | 39% | 1030.6 hPa | - | - | - | - |
| 1777528935 | 6.67° C | 39% | 1030.6 hPa | - | - | - | - |
* Rain since midnight (hover to see other rain measurements)
** Current wind speed in m/s (hover to see current wind gust speed)